createdAt,value
2023-01-29T00:02:19.938Z,20.70
2023-01-29T00:04:47.875Z,24.95
2023-01-29T00:07:15.730Z,22.15
2023-01-29T00:09:43.493Z,25.58
2023-01-29T00:12:12.597Z,21.48
2023-01-29T00:14:40.375Z,26.00
2023-01-29T00:17:08.178Z,23.27
2023-01-29T00:19:36.695Z,24.27
2023-01-29T00:24:32.146Z,24.65
2023-01-29T00:26:59.926Z,29.10
2023-01-29T00:29:29.090Z,23.75
2023-01-29T00:31:57.029Z,23.15
2023-01-29T00:34:24.876Z,22.08
2023-01-29T00:36:52.660Z,23.65
2023-01-29T00:39:31.398Z,24.60
2023-01-29T00:42:18.064Z,26.15
2023-01-29T00:44:59.381Z,25.27
2023-01-29T00:47:34.377Z,23.33
2023-01-29T00:50:03.133Z,26.15
2023-01-29T00:52:30.927Z,29.08
2023-01-29T00:55:00.541Z,25.15
2023-01-29T00:57:30.959Z,21.48
2023-01-29T01:00:00.307Z,21.70
2023-01-29T01:02:42.616Z,23.63
2023-01-29T01:05:14.148Z,28.38
2023-01-29T01:07:42.426Z,25.13
2023-01-29T01:10:22.004Z,19.10
2023-01-29T01:12:51.976Z,25.08
2023-01-29T01:15:21.774Z,21.08
2023-01-29T01:17:52.531Z,23.83
2023-01-29T01:20:20.363Z,23.67
2023-01-29T01:22:48.253Z,25.05
2023-01-29T01:27:45.506Z,21.90
2023-01-29T01:30:15.142Z,22.42
2023-01-29T01:32:44.573Z,25.83
2023-01-29T01:35:13.721Z,21.00
2023-01-29T01:37:41.795Z,21.58
2023-01-29T01:40:18.036Z,23.45
2023-01-29T01:42:49.314Z,19.58
2023-01-29T01:45:22.942Z,19.88
2023-01-29T01:47:55.485Z,24.35
2023-01-29T01:50:27.913Z,21.58
2023-01-29T01:53:03.120Z,26.08
2023-01-29T01:58:04.266Z,22.23
2023-01-29T02:00:32.013Z,20.88
2023-01-29T02:03:19.714Z,23.33
2023-01-29T02:06:08.491Z,22.38
2023-01-29T02:09:01.023Z,19.55
2023-01-29T02:11:28.828Z,21.40
2023-01-29T02:13:56.628Z,29.55
2023-01-29T02:16:27.137Z,22.50
2023-01-29T02:18:58.182Z,26.65
2023-01-29T02:21:51.656Z,21.50
2023-01-29T02:24:38.694Z,20.83
2023-01-29T02:27:13.302Z,24.17
2023-01-29T02:29:54.100Z,23.80
2023-01-29T02:32:30.691Z,23.25
2023-01-29T02:35:28.365Z,21.15
2023-01-29T02:38:02.827Z,20.83
2023-01-29T02:40:35.484Z,20.33
2023-01-29T02:43:09.766Z,23.38
2023-01-29T02:45:48.542Z,25.70
2023-01-29T02:48:20.653Z,25.85
2023-01-29T02:50:55.576Z,23.00
2023-01-29T02:53:31.889Z,23.02
2023-01-29T02:56:03.222Z,23.00
2023-01-29T02:58:34.122Z,22.70
2023-01-29T03:01:08.960Z,23.67
2023-01-29T03:03:41.703Z,23.10
2023-01-29T03:06:18.233Z,24.98
2023-01-29T03:08:52.144Z,24.80
2023-01-29T03:11:19.953Z,22.25
2023-01-29T03:13:53.895Z,25.75
2023-01-29T03:16:31.282Z,29.13
2023-01-29T03:19:06.305Z,26.65
2023-01-29T03:21:55.327Z,29.17
2023-01-29T03:24:49.305Z,28.38
2023-01-29T03:27:38.079Z,25.67
2023-01-29T03:30:26.516Z,26.42
2023-01-29T03:33:11.150Z,29.08
2023-01-29T03:35:53.098Z,29.40
2023-01-29T03:38:21.682Z,23.85
2023-01-29T03:40:54.614Z,25.13
2023-01-29T03:43:32.221Z,24.20
2023-01-29T03:46:08.228Z,30.65
2023-01-29T03:48:41.337Z,27.88
2023-01-29T03:51:20.554Z,22.45
2023-01-29T03:53:54.850Z,29.83
2023-01-29T03:56:38.351Z,26.90
2023-01-29T03:59:18.205Z,27.30
2023-01-29T04:04:37.877Z,26.20
2023-01-29T04:07:12.702Z,25.50
2023-01-29T04:09:47.526Z,28.75
2023-01-29T04:12:20.761Z,29.10
2023-01-29T04:14:50.618Z,28.45
2023-01-29T04:17:23.832Z,28.65
2023-01-29T04:20:05.438Z,26.92
2023-01-29T04:22:36.399Z,27.98
2023-01-29T04:25:08.485Z,28.95
2023-01-29T04:27:44.480Z,25.90
2023-01-29T04:30:24.003Z,28.40
2023-01-29T04:33:04.018Z,25.00
2023-01-29T04:35:45.765Z,27.33
2023-01-29T04:38:19.984Z,29.60
2023-01-29T04:40:53.408Z,25.60
2023-01-29T04:43:28.150Z,30.13
2023-01-29T04:46:10.074Z,30.02
2023-01-29T04:48:47.629Z,27.25
2023-01-29T04:51:23.739Z,28.77
2023-01-29T04:53:56.483Z,25.25
2023-01-29T04:56:30.481Z,29.08
2023-01-29T04:59:03.518Z,27.63
2023-01-29T05:01:33.188Z,28.88
2023-01-29T05:04:04.406Z,25.88
2023-01-29T05:06:34.381Z,30.55
2023-01-29T05:09:03.448Z,27.98
2023-01-29T05:11:33.439Z,27.70
2023-01-29T05:14:04.827Z,29.67
2023-01-29T05:16:42.162Z,27.33
2023-01-29T05:19:11.034Z,31.15
2023-01-29T05:21:41.873Z,29.05
2023-01-29T05:24:11.385Z,29.27
2023-01-29T05:26:56.792Z,28.48
2023-01-29T05:29:24.628Z,28.95
2023-01-29T05:31:52.401Z,27.35
2023-01-29T05:34:20.174Z,28.88
2023-01-29T05:36:49.312Z,28.08
2023-01-29T05:39:17.325Z,28.00
2023-01-29T05:41:45.224Z,26.60
2023-01-29T05:44:13.194Z,28.10
2023-01-29T05:46:41.012Z,26.90
2023-01-29T05:49:08.855Z,28.23
2023-01-29T05:51:36.691Z,24.17
2023-01-29T05:54:06.293Z,29.20
2023-01-29T05:56:34.115Z,31.17
2023-01-29T05:59:01.905Z,25.42
2023-01-29T06:01:29.770Z,27.50
2023-01-29T06:03:57.550Z,30.08
2023-01-29T06:06:25.332Z,34.50
2023-01-29T06:08:53.085Z,29.85
2023-01-29T06:11:22.499Z,26.65
2023-01-29T06:13:50.352Z,30.83
2023-01-29T06:16:18.381Z,23.05
2023-01-29T06:18:46.152Z,27.33
2023-01-29T06:21:15.023Z,30.90
2023-01-29T06:23:42.968Z,29.92
2023-01-29T06:26:14.193Z,32.75
2023-01-29T06:28:43.820Z,29.52
2023-01-29T06:31:27.457Z,28.42
2023-01-29T06:33:59.585Z,29.17
2023-01-29T06:36:27.397Z,25.92
2023-01-29T06:38:55.191Z,28.25
2023-01-29T06:41:25.422Z,30.63
2023-01-29T06:43:54.788Z,28.08
2023-01-29T06:46:22.669Z,27.45
2023-01-29T06:48:50.486Z,27.60
2023-01-29T06:51:18.595Z,29.17
2023-01-29T06:53:46.931Z,27.40
2023-01-29T06:56:14.849Z,29.48
2023-01-29T06:58:43.591Z,22.90
2023-01-29T07:01:29.078Z,25.08
2023-01-29T07:04:01.045Z,28.58
2023-01-29T07:06:29.868Z,27.85
2023-01-29T07:08:57.756Z,25.13
2023-01-29T07:11:25.636Z,27.92
2023-01-29T07:13:53.423Z,25.67
2023-01-29T07:16:23.436Z,25.60
2023-01-29T07:18:51.253Z,26.27
2023-01-29T07:21:19.065Z,27.90
2023-01-29T07:23:46.872Z,33.63
2023-01-29T07:26:14.690Z,23.77
2023-01-29T07:28:42.635Z,28.55
2023-01-29T07:31:14.330Z,27.33
2023-01-29T07:33:44.110Z,25.90
2023-01-29T07:36:13.538Z,28.48
2023-01-29T07:38:41.342Z,25.58
2023-01-29T07:41:10.329Z,28.08
2023-01-29T07:43:38.139Z,26.67
2023-01-29T07:46:06.565Z,27.92
2023-01-29T07:51:03.401Z,27.85
2023-01-29T07:53:31.232Z,23.13
2023-01-29T07:55:59.079Z,28.17
2023-01-29T07:58:26.924Z,24.83
2023-01-29T08:00:54.727Z,28.00
2023-01-29T08:03:22.533Z,26.40
2023-01-29T08:05:50.416Z,23.15
2023-01-29T08:08:19.599Z,23.17
2023-01-29T08:10:47.432Z,28.05
2023-01-29T08:13:20.485Z,25.60
2023-01-29T08:15:48.341Z,27.58
2023-01-29T08:18:16.274Z,24.65
2023-01-29T08:20:44.098Z,27.52
2023-01-29T08:23:14.822Z,22.13
2023-01-29T08:25:44.310Z,23.88
2023-01-29T08:28:12.744Z,36.33
2023-01-29T08:33:09.513Z,28.25
2023-01-29T08:35:37.537Z,27.75
2023-01-29T08:38:06.457Z,23.88
2023-01-29T08:40:35.853Z,26.35
2023-01-29T08:43:09.602Z,22.80
2023-01-29T08:45:39.422Z,27.77
2023-01-29T08:48:07.829Z,24.67
2023-01-29T08:50:35.938Z,23.92
2023-01-29T08:53:07.657Z,28.02
2023-01-29T08:55:37.717Z,27.58
2023-01-29T08:58:07.220Z,27.30
2023-01-29T09:00:35.739Z,26.83
2023-01-29T09:05:31.710Z,25.33
2023-01-29T09:07:59.560Z,26.67
2023-01-29T09:10:27.828Z,27.45
2023-01-29T09:12:55.676Z,26.08
2023-01-29T09:15:24.972Z,29.75
2023-01-29T09:17:52.956Z,25.00
2023-01-29T09:20:21.403Z,25.23
2023-01-29T09:25:17.685Z,21.42
2023-01-29T09:30:13.914Z,27.10
2023-01-29T09:32:53.123Z,23.92
2023-01-29T09:35:21.853Z,23.92
2023-01-29T09:37:49.858Z,22.48
2023-01-29T09:40:26.932Z,28.23
2023-01-29T09:42:59.843Z,25.48
2023-01-29T09:45:29.389Z,22.80
2023-01-29T09:48:01.345Z,27.17
2023-01-29T09:50:33.352Z,23.98
2023-01-29T09:53:06.286Z,24.00
2023-01-29T09:55:40.102Z,21.88
2023-01-29T09:58:15.327Z,25.23
2023-01-29T10:00:52.782Z,22.63
2023-01-29T10:03:45.158Z,24.00
2023-01-29T10:06:24.366Z,22.83
2023-01-29T10:09:26.352Z,27.75
2023-01-29T10:12:06.545Z,22.70
2023-01-29T10:14:45.471Z,25.45
2023-01-29T10:17:29.295Z,23.33
2023-01-29T10:20:17.275Z,25.33
2023-01-29T10:23:05.309Z,24.25
2023-01-29T10:25:37.840Z,20.75
2023-01-29T10:28:17.537Z,22.73
2023-01-29T10:30:50.054Z,25.08
2023-01-29T10:33:23.908Z,27.05
2023-01-29T10:35:57.287Z,25.30
2023-01-29T10:38:36.197Z,26.80
2023-01-29T10:41:20.678Z,25.85
2023-01-29T10:44:00.016Z,26.05
2023-01-29T10:46:40.478Z,26.30
2023-01-29T10:49:23.248Z,28.38
2023-01-29T10:52:09.384Z,25.38
2023-01-29T10:54:51.073Z,23.02
2023-01-29T10:57:34.027Z,25.27
2023-01-29T11:00:12.804Z,29.23
2023-01-29T11:02:45.298Z,30.40
2023-01-29T11:05:21.998Z,25.05
2023-01-29T11:08:01.894Z,26.58
2023-01-29T11:10:33.741Z,27.08
2023-01-29T11:13:01.645Z,28.35
2023-01-29T11:15:33.840Z,27.63
2023-01-29T11:18:10.567Z,26.77
2023-01-29T11:20:38.382Z,25.58
2023-01-29T11:23:07.759Z,28.00
2023-01-29T11:25:35.832Z,27.55
2023-01-29T11:28:05.358Z,30.70
2023-01-29T11:30:35.289Z,30.38
2023-01-29T11:33:18.879Z,32.45
2023-01-29T11:35:47.226Z,29.48
2023-01-29T11:38:25.017Z,30.60
2023-01-29T11:40:54.043Z,27.50
2023-01-29T11:43:31.302Z,30.88
2023-01-29T11:46:02.534Z,30.00
2023-01-29T11:48:41.839Z,30.92
2023-01-29T11:51:12.476Z,31.52
2023-01-29T11:53:44.190Z,29.67
2023-01-29T11:56:21.655Z,30.35
2023-01-29T11:58:51.461Z,32.17
2023-01-29T12:01:29.992Z,28.42
2023-01-29T12:03:58.109Z,35.80
2023-01-29T12:06:32.221Z,30.67
2023-01-29T12:09:03.802Z,26.58
2023-01-29T12:11:33.473Z,31.85
2023-01-29T12:14:03.489Z,31.70
2023-01-29T12:16:34.442Z,31.20
2023-01-29T12:19:11.715Z,31.83
2023-01-29T12:21:47.229Z,29.70
2023-01-29T12:24:32.444Z,32.58
2023-01-29T12:27:08.840Z,33.33
2023-01-29T12:29:45.273Z,28.45
2023-01-29T12:32:27.484Z,39.80
2023-01-29T12:35:00.061Z,31.70
2023-01-29T12:37:39.307Z,30.30
2023-01-29T12:40:15.917Z,37.95
2023-01-29T12:42:48.471Z,31.95
2023-01-29T12:45:19.772Z,34.85
2023-01-29T12:47:50.359Z,35.85
2023-01-29T12:50:22.245Z,31.77
2023-01-29T12:52:54.793Z,31.25
2023-01-29T12:55:27.333Z,34.58
2023-01-29T12:57:58.587Z,35.05
2023-01-29T13:00:29.316Z,32.05
2023-01-29T13:03:02.820Z,32.67
2023-01-29T13:05:37.615Z,37.05
2023-01-29T13:08:09.840Z,40.05
2023-01-29T13:10:44.048Z,32.92
2023-01-29T13:13:18.032Z,33.65
2023-01-29T13:15:47.753Z,37.00
2023-01-29T13:18:33.706Z,31.02
2023-01-29T13:21:02.263Z,33.72
2023-01-29T13:23:35.077Z,35.58
2023-01-29T13:26:05.708Z,31.17
2023-01-29T13:28:34.014Z,33.88
2023-01-29T13:31:19.442Z,32.22
2023-01-29T13:33:55.083Z,32.33
2023-01-29T13:36:28.998Z,32.55
2023-01-29T13:39:03.733Z,32.55
2023-01-29T13:41:39.684Z,32.45
2023-01-29T13:44:19.215Z,35.70
2023-01-29T13:46:53.108Z,31.95
2023-01-29T13:49:31.287Z,31.40
2023-01-29T13:52:00.584Z,35.28
2023-01-29T13:54:29.019Z,35.20
2023-01-29T13:57:02.582Z,33.50
2023-01-29T14:00:00.576Z,32.13
2023-01-29T14:02:30.394Z,30.70
2023-01-29T14:05:35.468Z,33.25
2023-01-29T14:08:04.697Z,33.47
2023-01-29T14:10:33.847Z,33.30
2023-01-29T14:13:35.376Z,30.92
2023-01-29T14:16:34.742Z,30.35
2023-01-29T14:19:04.841Z,33.78
2023-01-29T14:21:34.857Z,31.33
2023-01-29T14:24:12.801Z,32.30
2023-01-29T14:26:46.011Z,31.88
2023-01-29T14:29:34.250Z,34.88
2023-01-29T14:32:21.296Z,31.75
2023-01-29T14:34:51.674Z,26.75
2023-01-29T14:37:23.202Z,26.70
2023-01-29T14:39:53.117Z,31.35
2023-01-29T14:42:25.751Z,30.00
2023-01-29T14:45:01.817Z,31.58
2023-01-29T14:47:55.886Z,31.40
2023-01-29T14:50:46.083Z,35.22
2023-01-29T14:53:20.807Z,30.67
2023-01-29T14:55:53.934Z,28.48
2023-01-29T14:58:26.953Z,28.38
2023-01-29T15:00:59.397Z,34.38
2023-01-29T15:03:36.719Z,28.80
2023-01-29T15:06:07.884Z,28.00
2023-01-29T15:08:39.761Z,31.20
2023-01-29T15:11:32.361Z,31.92
2023-01-29T15:14:07.789Z,35.90
2023-01-29T15:16:45.792Z,28.05
2023-01-29T15:19:21.388Z,29.60
2023-01-29T15:22:10.618Z,32.05
2023-01-29T15:24:39.319Z,29.73
2023-01-29T15:27:10.761Z,32.33
2023-01-29T15:29:39.717Z,32.13
2023-01-29T15:32:14.568Z,28.40
2023-01-29T15:34:43.711Z,30.02
2023-01-29T15:37:26.345Z,30.05
2023-01-29T15:39:54.277Z,30.38
2023-01-29T15:42:25.716Z,35.33
2023-01-29T15:44:55.487Z,32.03
2023-01-29T15:47:33.671Z,32.35
2023-01-29T15:50:01.692Z,32.47
2023-01-29T15:52:35.051Z,27.08
2023-01-29T15:55:05.834Z,30.70
2023-01-29T15:57:37.506Z,29.98
2023-01-29T16:00:08.044Z,30.10
2023-01-29T16:02:41.891Z,30.85
2023-01-29T16:05:15.298Z,22.60
2023-01-29T16:07:43.802Z,29.95
2023-01-29T16:10:18.738Z,29.95
2023-01-29T16:12:51.350Z,29.02
2023-01-29T16:15:25.027Z,31.40
2023-01-29T16:17:54.446Z,28.00
2023-01-29T16:20:33.681Z,32.00
2023-01-29T16:23:01.818Z,29.33
2023-01-29T16:25:31.259Z,29.38
2023-01-29T16:27:59.478Z,33.47
2023-01-29T16:30:28.678Z,30.90
2023-01-29T16:33:04.860Z,27.85
2023-01-29T16:35:33.952Z,30.27
2023-01-29T16:38:06.024Z,24.38
2023-01-29T16:40:37.536Z,35.70
2023-01-29T16:43:46.310Z,31.65
2023-01-29T16:46:25.186Z,39.08
2023-01-29T16:48:54.796Z,31.30
2023-01-29T16:51:26.988Z,34.67
2023-01-29T16:54:00.425Z,34.95
2023-01-29T16:56:31.639Z,35.80
2023-01-29T16:59:00.578Z,38.38
2023-01-29T17:01:30.734Z,41.38
2023-01-29T17:04:07.592Z,33.80
2023-01-29T17:06:36.156Z,38.22
2023-01-29T17:09:04.659Z,37.17
2023-01-29T17:14:04.121Z,40.28
2023-01-29T17:16:34.328Z,36.63
2023-01-29T17:19:16.320Z,39.80
2023-01-29T17:24:11.713Z,32.72
2023-01-29T17:26:40.485Z,34.67
2023-01-29T17:29:15.455Z,40.53
2023-01-29T17:31:43.775Z,38.67
2023-01-29T17:34:14.901Z,38.50
2023-01-29T17:36:43.286Z,41.88
2023-01-29T17:39:18.042Z,35.70
2023-01-29T17:41:48.310Z,39.42
2023-01-29T17:44:16.398Z,35.00
2023-01-29T17:46:44.354Z,41.88
2023-01-29T17:49:23.568Z,35.03
2023-01-29T17:51:52.052Z,37.47
2023-01-29T17:56:48.525Z,31.63
2023-01-29T17:59:17.847Z,36.10
2023-01-29T18:01:46.343Z,33.60
2023-01-29T18:04:14.348Z,35.22
2023-01-29T18:06:45.254Z,38.72
2023-01-29T18:09:14.732Z,34.88
2023-01-29T18:11:43.231Z,32.55
2023-01-29T18:14:14.401Z,31.50
2023-01-29T18:16:44.135Z,40.50
2023-01-29T18:19:14.738Z,36.28
2023-01-29T18:21:43.923Z,31.83
2023-01-29T18:24:11.706Z,34.10
2023-01-29T18:26:39.647Z,31.08
2023-01-29T18:29:07.454Z,37.42
2023-01-29T18:31:35.342Z,33.55
2023-01-29T18:34:03.268Z,33.33
2023-01-29T18:36:31.099Z,37.75
2023-01-29T18:39:00.325Z,43.10
2023-01-29T18:41:28.217Z,37.33
2023-01-29T18:43:56.046Z,35.38
2023-01-29T18:46:24.310Z,36.33
2023-01-29T18:48:52.192Z,34.25
2023-01-29T18:51:20.012Z,40.45
2023-01-29T18:53:50.937Z,37.25
2023-01-29T18:56:20.271Z,35.10
2023-01-29T18:58:52.185Z,34.63
2023-01-29T19:01:23.023Z,36.33
2023-01-29T19:03:50.874Z,36.22
2023-01-29T19:06:18.671Z,31.48
2023-01-29T19:08:47.405Z,34.47
2023-01-29T19:11:15.314Z,35.22
2023-01-29T19:13:44.511Z,35.78
2023-01-29T19:16:13.498Z,41.35
2023-01-29T19:18:41.424Z,35.00
2023-01-29T19:21:11.022Z,38.20
2023-01-29T19:23:39.138Z,33.70
2023-01-29T19:26:07.438Z,34.85
2023-01-29T19:28:35.395Z,33.03
2023-01-29T19:31:04.876Z,29.77
2023-01-29T19:33:32.671Z,34.20
2023-01-29T19:36:00.922Z,33.08
2023-01-29T19:38:29.200Z,30.02
2023-01-29T19:40:57.085Z,32.35
2023-01-29T19:43:24.967Z,35.20
2023-01-29T19:45:59.056Z,35.85
2023-01-29T19:48:28.927Z,33.60
2023-01-29T19:50:58.309Z,37.45
2023-01-29T19:53:26.499Z,33.75
2023-01-29T19:56:01.491Z,34.05
2023-01-29T19:58:29.866Z,35.45
2023-01-29T20:03:28.869Z,32.13
2023-01-29T20:05:57.099Z,35.88
2023-01-29T20:08:25.001Z,37.10
2023-01-29T20:10:52.881Z,26.83
2023-01-29T20:13:20.752Z,37.20
2023-01-29T20:15:49.753Z,33.88
2023-01-29T20:18:18.142Z,34.78
2023-01-29T20:23:25.031Z,34.08
2023-01-29T20:26:07.359Z,32.42
2023-01-29T20:28:35.786Z,39.95
2023-01-29T20:33:33.593Z,34.65
2023-01-29T20:36:06.358Z,35.78
2023-01-29T20:38:34.744Z,39.08
2023-01-29T20:43:34.189Z,34.42
2023-01-29T20:46:02.740Z,33.03
2023-01-29T20:48:31.559Z,40.33
2023-01-29T20:51:07.864Z,37.08
2023-01-29T20:53:35.980Z,37.35
2023-01-29T20:56:04.743Z,36.95
2023-01-29T20:58:33.195Z,36.80
2023-01-29T21:01:01.039Z,38.10
2023-01-29T21:03:28.870Z,36.03
2023-01-29T21:05:59.043Z,36.00
2023-01-29T21:08:28.270Z,39.17
2023-01-29T21:10:56.170Z,41.70
2023-01-29T21:13:24.047Z,41.15
2023-01-29T21:15:51.990Z,39.65
2023-01-29T21:18:19.789Z,40.10
2023-01-29T21:20:50.424Z,39.08
2023-01-29T21:23:18.271Z,40.83
2023-01-29T21:25:48.050Z,41.13
2023-01-29T21:28:16.781Z,33.95
2023-01-29T21:30:44.660Z,44.05
2023-01-29T21:33:12.870Z,29.10
2023-01-29T21:35:40.672Z,36.92
2023-01-29T21:38:08.787Z,40.45
2023-01-29T21:40:36.580Z,34.25
2023-01-29T21:43:15.459Z,39.92
2023-01-29T21:45:44.104Z,46.72
2023-01-29T21:48:13.012Z,44.90
2023-01-29T21:50:40.876Z,35.80
2023-01-29T21:53:08.677Z,40.58
2023-01-29T21:55:36.498Z,37.90
2023-01-29T21:58:04.368Z,41.45
2023-01-29T22:00:33.875Z,39.55
2023-01-29T22:03:01.729Z,40.75
2023-01-29T22:05:30.219Z,39.30
2023-01-29T22:07:58.097Z,37.58
2023-01-29T22:10:26.103Z,35.08
2023-01-29T22:12:54.042Z,40.78
2023-01-29T22:15:23.701Z,42.33
2023-01-29T22:17:53.266Z,39.45
2023-01-29T22:20:29.465Z,42.92
2023-01-29T22:22:58.827Z,35.53
2023-01-29T22:25:26.586Z,41.53
2023-01-29T22:27:54.472Z,43.42
2023-01-29T22:30:23.314Z,44.45
2023-01-29T22:32:51.321Z,46.38
2023-01-29T22:35:20.418Z,41.63
2023-01-29T22:37:48.250Z,44.35
2023-01-29T22:40:16.304Z,39.97
2023-01-29T22:42:44.169Z,47.35
2023-01-29T22:45:13.080Z,45.92
2023-01-29T22:47:40.899Z,46.10
2023-01-29T22:50:09.528Z,35.13
2023-01-29T22:52:42.678Z,36.17
2023-01-29T22:55:13.075Z,45.40
2023-01-29T22:57:41.214Z,39.42
2023-01-29T23:00:13.118Z,40.42
2023-01-29T23:02:40.867Z,34.80
2023-01-29T23:05:09.474Z,39.42
2023-01-29T23:07:38.607Z,41.20
2023-01-29T23:10:07.451Z,43.72
2023-01-29T23:12:35.466Z,37.30
2023-01-29T23:15:03.260Z,41.58
2023-01-29T23:17:31.121Z,40.53
2023-01-29T23:19:58.901Z,40.47
2023-01-29T23:22:26.733Z,38.83
2023-01-29T23:24:56.359Z,33.15
2023-01-29T23:27:23.186Z,37.00
2023-01-29T23:29:51.095Z,38.00
2023-01-29T23:32:20.811Z,38.20
2023-01-29T23:34:48.659Z,36.42
2023-01-29T23:37:16.447Z,36.17
2023-01-29T23:39:44.203Z,42.65
2023-01-29T23:42:13.323Z,37.05
2023-01-29T23:44:41.172Z,37.78
2023-01-29T23:47:09.712Z,35.83
2023-01-29T23:49:37.702Z,35.30
2023-01-29T23:52:05.799Z,35.15
2023-01-29T23:54:33.569Z,42.20
2023-01-29T23:57:01.386Z,42.90
2023-01-29T23:59:30.632Z,34.03
